Time;durP1;ratioP1;P1;durP2;ratioP2;P2;SDS_P1;SDS_P2;PMS_P1;PMS_P2;Temp;Humidity;BMP_temperature;BMP_pressure;BME280_temperature;BME280_humidity;BME280_pressure;Samples;Min_cycle;Max_cycle;Signal;HPM_P1;HPM_P2
2023/01/09 00:01:13;;;;;;;5.50;5.30;;;7.80;99.90;;;;;;5053740;28;20215;-65
2023/01/09 00:03:39;;;;;;;5.33;5.13;;;7.70;99.90;;;;;;5053863;28;20207;-64
2023/01/09 00:06:05;;;;;;;5.57;5.37;;;7.60;99.90;;;;;;5053602;28;20252;-65
2023/01/09 00:08:30;;;;;;;5.77;5.57;;;7.60;99.90;;;;;;5054082;28;20171;-65
2023/01/09 00:10:56;;;;;;;6.10;5.90;;;7.50;99.90;;;;;;5052543;28;20190;-64
2023/01/09 00:13:22;;;;;;;6.37;6.17;;;7.40;99.90;;;;;;5053818;28;20194;-64
2023/01/09 00:15:47;;;;;;;6.30;6.10;;;7.30;99.90;;;;;;5053834;28;20187;-65
2023/01/09 00:18:13;;;;;;;5.97;5.77;;;7.30;99.90;;;;;;5053844;28;20179;-65
2023/01/09 00:20:39;;;;;;;5.57;5.37;;;7.30;99.90;;;;;;5053317;28;20684;-65
2023/01/09 00:23:04;;;;;;;6.27;6.07;;;7.20;99.90;;;;;;5053693;28;20683;-65
2023/01/09 00:25:30;;;;;;;6.00;5.80;;;7.20;99.90;;;;;;5053723;28;20570;-65
2023/01/09 00:27:55;;;;;;;5.90;5.70;;;7.20;99.90;;;;;;5053547;28;20182;-64
2023/01/09 00:30:21;;;;;;;6.03;5.73;;;7.20;99.90;;;;;;5053070;28;20202;-66
2023/01/09 00:32:47;;;;;;;5.47;5.27;;;7.20;99.90;;;;;;5053425;28;20299;-64
2023/01/09 00:35:15;;;;;;;5.60;5.40;;;7.20;99.90;;;;;;5053596;28;20179;-65
2023/01/09 00:37:41;;;;;;;5.20;5.00;;;7.10;99.90;;;;;;5053618;28;20194;-65
2023/01/09 00:40:07;;;;;;;6.30;5.80;;;7.10;99.90;;;;;;5052698;28;20621;-64
2023/01/09 00:42:35;;;;;;;5.37;5.17;;;7.10;99.90;;;;;;5052042;28;20209;-65
2023/01/09 00:45:08;;;;;;;5.60;5.40;;;7.10;99.90;;;;;;5053122;28;20220;-64
2023/01/09 00:47:41;;;;;;;5.63;5.43;;;7.10;99.90;;;;;;5053408;28;20191;-64
2023/01/09 00:50:21;;;;;;;5.37;5.17;;;7.10;99.90;;;;;;5052625;28;20171;-64
2023/01/09 00:52:48;;;;;;;5.00;4.80;;;7.10;99.90;;;;;;5053229;28;20194;-64
2023/01/09 00:55:14;;;;;;;5.80;5.60;;;7.10;99.90;;;;;;5053029;28;20179;-64
2023/01/09 00:57:40;;;;;;;5.40;5.20;;;7.10;99.90;;;;;;5053175;28;20183;-65
2023/01/09 01:00:08;;;;;;;5.60;5.40;;;7.10;99.90;;;;;;5052408;28;20183;-64
2023/01/09 01:02:34;;;;;;;5.40;5.20;;;7.10;99.90;;;;;;5034933;28;20457;-65
2023/01/09 01:07:44;;;;;;;5.10;4.90;;;7.00;99.90;;;;;;5053062;28;20190;-64
2023/01/09 01:10:16;;;;;;;5.33;5.03;;;7.00;99.90;;;;;;5051684;28;20170;-64
2023/01/09 01:12:43;;;;;;;13.23;5.23;;;7.00;99.90;;;;;;5052875;28;20194;-64
2023/01/09 01:15:09;;;;;;;5.03;4.83;;;6.90;99.90;;;;;;5052583;28;20179;-65
2023/01/09 01:17:37;;;;;;;4.33;4.13;;;6.90;99.90;;;;;;5052860;28;20201;-64
2023/01/09 01:20:07;;;;;;;4.53;4.33;;;6.90;99.90;;;;;;5052011;28;20277;-65
2023/01/09 01:22:33;;;;;;;4.70;4.50;;;6.80;99.90;;;;;;5052634;28;20206;-64
2023/01/09 01:24:58;;;;;;;4.83;4.63;;;6.80;99.90;;;;;;5052594;28;20181;-65
2023/01/09 01:27:26;;;;;;;5.00;4.80;;;6.80;99.90;;;;;;5052698;28;20175;-65
2023/01/09 01:29:51;;;;;;;5.00;4.60;;;6.80;99.90;;;;;;5051881;28;20193;-64
2023/01/09 01:32:17;;;;;;;4.83;4.63;;;6.90;99.90;;;;;;5052322;28;20754;-65
2023/01/09 01:34:43;;;;;;;5.00;4.80;;;6.90;99.90;;;;;;5052271;28;20190;-64
2023/01/09 01:37:08;;;;;;;5.23;5.03;;;6.90;99.90;;;;;;5052478;28;20694;-64
2023/01/09 01:39:34;;;;;;;4.73;4.53;;;7.00;99.90;;;;;;5051840;28;20190;-64
2023/01/09 01:42:01;;;;;;;5.30;5.10;;;7.00;99.90;;;;;;5052591;28;20207;-64
2023/01/09 01:44:55;;;;;;;5.37;5.17;;;7.00;99.90;;;;;;5052234;28;20288;-64
2023/01/09 01:47:26;;;;;;;5.10;4.90;;;7.00;99.90;;;;;;5031967;28;20179;-64
2023/01/09 01:49:52;;;;;;;5.70;5.40;;;7.10;99.90;;;;;;5039099;28;20581;-64
2023/01/09 01:52:19;;;;;;;5.77;5.47;;;7.10;99.90;;;;;;5052062;28;20201;-64
2023/01/09 01:54:46;;;;;;;5.20;5.00;;;7.10;99.90;;;;;;5051819;28;20628;-64
2023/01/09 01:57:11;;;;;;;5.43;5.23;;;7.10;99.90;;;;;;5052071;28;20687;-64
2023/01/09 01:59:48;;;;;;;5.20;5.00;;;7.10;99.90;;;;;;5052764;28;20428;-64
2023/01/09 02:02:19;;;;;;;5.17;4.97;;;7.00;99.90;;;;;;5050514;28;20199;-64
2023/01/09 02:04:46;;;;;;;5.23;5.03;;;7.00;99.90;;;;;;5051993;28;20557;-64
2023/01/09 02:07:11;;;;;;;5.67;5.37;;;7.00;99.90;;;;;;5051647;28;20640;-64
2023/01/09 02:09:39;;;;;;;5.83;5.53;;;7.00;99.90;;;;;;5051005;28;20174;-64
2023/01/09 02:12:25;;;;;;;5.03;4.83;;;7.00;99.90;;;;;;5051532;28;20289;-64
2023/01/09 02:14:57;;;;;;;5.10;4.90;;;7.00;99.90;;;;;;5051793;28;20210;-64
2023/01/09 02:18:01;;;;;;;5.53;5.33;;;7.00;99.90;;;;;;5051729;28;20182;-64
2023/01/09 02:20:36;;;;;;;5.50;5.20;;;7.00;99.90;;;;;;5043212;28;20194;-64
2023/01/09 02:23:20;;;;;;;5.70;5.50;;;7.00;99.90;;;;;;5051168;28;20655;-64
2023/01/09 02:26:15;;;;;;;4.97;4.77;;;7.10;99.90;;;;;;5051556;28;20186;-64
2023/01/09 02:28:53;;;;;;;5.10;4.90;;;7.10;99.90;;;;;;5051375;28;20269;-64
2023/01/09 02:31:32;;;;;;;5.47;5.27;;;7.10;99.90;;;;;;5051206;28;20213;-64
2023/01/09 02:34:28;;;;;;;5.40;5.20;;;7.10;99.90;;;;;;5051184;28;20189;-64
2023/01/09 02:37:00;;;;;;;5.37;5.17;;;7.20;99.90;;;;;;5051502;28;20206;-64
2023/01/09 02:39:45;;;;;;;5.57;5.27;;;7.20;99.90;;;;;;5051091;28;20193;-64
2023/01/09 02:42:22;;;;;;;6.37;5.97;;;7.20;99.90;;;;;;5051145;28;20259;-64
2023/01/09 02:44:48;;;;;;;6.00;5.60;;;7.20;99.90;;;;;;5051414;28;20673;-64
2023/01/09 02:47:14;;;;;;;5.93;5.73;;;7.20;99.90;;;;;;5051337;28;20645;-64
2023/01/09 02:49:41;;;;;;;6.00;5.80;;;7.20;99.90;;;;;;5050851;28;20195;-64
2023/01/09 02:52:16;;;;;;;6.33;6.03;;;7.20;99.90;;;;;;5050823;28;20199;-64
2023/01/09 02:55:06;;;;;;;6.40;6.10;;;7.30;99.90;;;;;;5051372;28;20178;-64
2023/01/09 02:58:00;;;;;;;6.20;5.90;;;7.30;99.90;;;;;;5051156;28;20713;-64
2023/01/09 03:00:38;;;;;;;5.83;5.63;;;7.40;99.90;;;;;;5053542;28;20193;-64
2023/01/09 03:03:16;;;;;;;6.40;6.10;;;7.40;99.90;;;;;;5054821;28;20207;-64
2023/01/09 03:05:55;;;;;;;6.63;6.27;;;7.40;99.90;;;;;;5055106;28;20178;-64
2023/01/09 03:08:27;;;;;;;6.00;5.70;;;7.40;99.90;;;;;;5055508;28;20589;-64
2023/01/09 03:11:03;;;;;;;6.00;5.80;;;7.40;99.90;;;;;;5053440;28;20183;-64
2023/01/09 03:13:34;;;;;;;7.00;6.00;;;7.40;99.90;;;;;;5055343;28;20197;-64
2023/01/09 03:16:05;;;;;;;6.10;5.83;;;7.40;99.90;;;;;;5054869;28;20638;-64
2023/01/09 03:18:33;;;;;;;6.07;5.87;;;7.40;99.90;;;;;;5055358;28;20175;-64
2023/01/09 03:20:58;;;;;;;6.00;5.50;;;7.30;99.90;;;;;;5054878;28;20199;-64
2023/01/09 03:23:24;;;;;;;5.70;5.50;;;7.20;99.90;;;;;;5054095;28;20190;-64
2023/01/09 03:25:50;;;;;;;5.33;5.13;;;7.10;99.90;;;;;;5054756;28;20269;-64
2023/01/09 03:28:28;;;;;;;19.93;5.77;;;7.00;99.90;;;;;;5054862;28;20580;-64
2023/01/09 03:30:53;;;;;;;5.50;5.30;;;6.90;99.90;;;;;;5054406;28;20187;-63
2023/01/09 03:33:19;;;;;;;5.07;4.87;;;6.80;99.90;;;;;;5054752;28;20214;-64
2023/01/09 03:35:45;;;;;;;5.20;4.93;;;6.80;99.90;;;;;;5054497;28;20229;-64
2023/01/09 03:38:10;;;;;;;5.50;5.30;;;6.80;99.90;;;;;;5054529;28;20544;-64
2023/01/09 03:40:36;;;;;;;5.80;5.60;;;6.70;99.90;;;;;;5054119;28;20668;-64
2023/01/09 03:43:01;;;;;;;5.33;5.13;;;6.70;99.90;;;;;;5054507;28;20600;-63
2023/01/09 03:45:27;;;;;;;5.70;5.23;;;6.70;99.90;;;;;;5054535;28;20236;-64
2023/01/09 03:47:53;;;;;;;5.20;5.00;;;6.70;99.90;;;;;;5054316;28;20182;-64
2023/01/09 03:50:18;;;;;;;5.57;5.27;;;6.60;99.90;;;;;;5054131;28;20171;-64
2023/01/09 03:52:44;;;;;;;10.47;5.23;;;6.60;99.90;;;;;;5054455;28;20198;-63
2023/01/09 03:55:10;;;;;;;5.47;5.27;;;6.50;99.90;;;;;;5054380;28;20540;-63
2023/01/09 03:57:35;;;;;;;5.77;5.47;;;6.50;99.90;;;;;;5054122;28;20187;-63
2023/01/09 04:00:01;;;;;;;6.30;5.90;;;6.40;99.90;;;;;;5053850;28;20163;-63
2023/01/09 04:02:27;;;;;;;6.10;5.80;;;6.40;99.90;;;;;;5053876;28;20570;-64
2023/01/09 04:04:53;;;;;;;6.10;5.80;;;6.30;99.90;;;;;;5054196;28;20224;-64
2023/01/09 04:07:18;;;;;;;6.00;5.70;;;6.30;99.90;;;;;;5053966;28;20873;-64
2023/01/09 04:09:44;;;;;;;5.43;5.23;;;6.20;99.90;;;;;;5052874;28;20197;-64
2023/01/09 04:12:09;;;;;;;6.97;6.57;;;6.20;99.90;;;;;;5052299;28;20240;-64
2023/01/09 04:14:35;;;;;;;5.93;5.70;;;6.10;99.90;;;;;;5054035;28;20512;-63
2023/01/09 04:17:01;;;;;;;6.97;6.60;;;6.10;99.90;;;;;;5053841;28;20182;-64
2023/01/09 04:19:26;;;;;;;6.07;5.77;;;6.00;99.90;;;;;;5053773;28;20232;-64
2023/01/09 04:21:52;;;;;;;6.37;5.87;;;6.00;99.90;;;;;;5053425;28;20289;-64
2023/01/09 04:24:17;;;;;;;7.93;7.37;;;6.00;99.90;;;;;;5053814;28;20262;-63
2023/01/09 04:26:43;;;;;;;7.70;5.53;;;5.90;99.90;;;;;;5053639;28;20187;-64
2023/01/09 04:29:09;;;;;;;5.50;5.30;;;5.90;99.90;;;;;;5053549;28;20177;-64
2023/01/09 04:31:34;;;;;;;6.20;5.70;;;5.90;99.90;;;;;;5053552;28;20676;-64
2023/01/09 04:34:00;;;;;;;5.60;5.40;;;5.90;99.90;;;;;;5053539;28;20170;-64
2023/01/09 04:36:25;;;;;;;5.73;5.40;;;5.90;99.90;;;;;;5053395;28;20666;-64
2023/01/09 04:38:51;;;;;;;6.93;5.47;;;5.80;99.90;;;;;;5053592;28;20179;-64
2023/01/09 04:41:47;;;;;;;5.10;4.90;;;5.80;99.90;;;;;;5052954;28;20206;-64
2023/01/09 04:44:02;;;;;;;6.00;5.47;;;5.90;99.90;;;;;;5052974;28;20189;-64
2023/01/09 04:46:28;;;;;;;5.63;5.43;;;6.00;99.90;;;;;;5053438;28;20581;-64
2023/01/09 04:48:53;;;;;;;6.77;6.17;;;6.00;99.90;;;;;;5053412;28;20187;-64
2023/01/09 04:51:19;;;;;;;6.83;6.13;;;6.10;99.90;;;;;;5053047;28;20700;-64
2023/01/09 04:53:44;;;;;;;6.40;5.90;;;6.20;99.90;;;;;;5053385;28;20252;-63
2023/01/09 04:56:10;;;;;;;6.17;5.73;;;6.30;99.90;;;;;;5053207;28;20175;-64
2023/01/09 04:58:35;;;;;;;5.90;5.70;;;6.40;99.90;;;;;;5053056;28;20183;-63
2023/01/09 05:01:01;;;;;;;5.97;5.60;;;6.50;99.90;;;;;;5052833;28;20282;-63
2023/01/09 05:03:26;;;;;;;7.40;6.77;;;6.60;99.90;;;;;;5052683;28;20206;-63
2023/01/09 05:05:52;;;;;;;5.63;5.13;;;6.70;99.90;;;;;;5053011;28;20253;-63
2023/01/09 05:08:18;;;;;;;5.83;5.33;;;6.80;99.90;;;;;;5052656;28;20178;-63
2023/01/09 05:10:43;;;;;;;6.17;5.50;;;6.80;99.90;;;;;;5052568;28;20640;-63
2023/01/09 05:13:09;;;;;;;5.73;5.43;;;6.90;99.90;;;;;;5053077;28;20233;-63
2023/01/09 05:15:35;;;;;;;5.70;5.40;;;6.90;99.90;;;;;;5053153;28;20186;-64
2023/01/09 05:18:00;;;;;;;6.20;5.90;;;7.00;99.90;;;;;;5052818;28;20644;-63
2023/01/09 05:20:26;;;;;;;6.17;5.57;;;7.00;99.90;;;;;;5052325;28;20551;-63
2023/01/09 05:22:52;;;;;;;6.47;6.17;;;7.10;99.90;;;;;;5051733;28;20206;-64
2023/01/09 05:25:17;;;;;;;6.00;5.80;;;7.10;99.90;;;;;;5052868;28;20221;-63
2023/01/09 05:27:45;;;;;;;6.63;6.23;;;7.20;99.90;;;;;;5052535;28;20178;-63
2023/01/09 05:30:11;;;;;;;6.03;5.77;;;7.20;99.90;;;;;;5050802;28;20175;-63
2023/01/09 05:32:37;;;;;;;5.67;5.47;;;7.20;99.90;;;;;;5050308;28;20716;-64
2023/01/09 05:35:03;;;;;;;5.70;5.50;;;7.20;99.90;;;;;;5052433;28;20187;-64
2023/01/09 05:37:28;;;;;;;5.87;5.57;;;7.20;99.90;;;;;;5052041;28;20210;-64
2023/01/09 05:39:54;;;;;;;5.90;5.50;;;7.20;99.90;;;;;;5049554;28;20179;-63
2023/01/09 05:42:19;;;;;;;5.70;5.40;;;7.20;99.90;;;;;;5050071;28;20214;-63
2023/01/09 05:44:45;;;;;;;5.60;5.30;;;7.20;99.90;;;;;;5052362;28;20253;-63
2023/01/09 05:47:11;;;;;;;5.57;5.37;;;7.20;99.90;;;;;;5051303;28;20185;-63
2023/01/09 05:49:36;;;;;;;5.73;5.43;;;7.10;99.90;;;;;;5052081;28;20175;-63
2023/01/09 05:52:02;;;;;;;5.33;5.13;;;7.10;99.90;;;;;;5051781;28;20222;-63
2023/01/09 05:54:28;;;;;;;6.67;5.90;;;7.10;99.90;;;;;;5052185;28;20183;-63
2023/01/09 05:56:53;;;;;;;6.10;5.80;;;7.00;99.90;;;;;;5051765;28;20625;-63
2023/01/09 05:59:19;;;;;;;6.33;5.97;;;7.10;99.90;;;;;;5051803;28;20214;-63
2023/01/09 06:01:44;;;;;;;5.97;5.67;;;7.00;99.90;;;;;;5051520;28;20272;-64
2023/01/09 06:04:10;;;;;;;7.07;6.47;;;7.00;99.90;;;;;;5051819;28;20249;-64
2023/01/09 06:06:36;;;;;;;5.73;5.47;;;7.00;99.90;;;;;;5051645;28;20202;-64
2023/01/09 06:09:02;;;;;;;5.60;5.40;;;7.00;99.90;;;;;;5051871;28;20167;-64
2023/01/09 06:11:28;;;;;;;6.20;5.70;;;7.00;99.90;;;;;;5051605;28;20179;-63
2023/01/09 06:13:53;;;;;;;5.90;5.70;;;7.00;99.90;;;;;;5051623;28;20670;-63
2023/01/09 06:16:19;;;;;;;5.70;5.50;;;7.00;99.90;;;;;;5052083;28;20498;-64
2023/01/09 06:18:45;;;;;;;6.77;5.90;;;7.00;99.90;;;;;;5051593;28;20232;-64
2023/01/09 06:21:10;;;;;;;6.30;5.83;;;7.00;99.90;;;;;;5050016;28;20194;-64
2023/01/09 06:23:36;;;;;;;6.30;6.00;;;7.00;99.90;;;;;;5051314;28;20214;-64
2023/01/09 06:26:02;;;;;;;6.37;6.07;;;7.10;99.90;;;;;;5051640;28;20167;-68
2023/01/09 06:28:27;;;;;;;14.87;6.20;;;7.20;99.90;;;;;;5051072;28;20250;-64
2023/01/09 06:30:53;;;;;;;6.13;5.80;;;7.20;99.90;;;;;;5051068;28;20546;-64
2023/01/09 06:33:20;;;;;;;6.70;6.30;;;7.30;99.90;;;;;;5049234;28;20226;-64
2023/01/09 06:35:45;;;;;;;6.30;6.00;;;7.30;99.90;;;;;;5051367;28;20186;-64
2023/01/09 06:38:11;;;;;;;6.60;6.30;;;7.30;99.90;;;;;;5050961;28;20667;-64
2023/01/09 06:40:37;;;;;;;6.57;6.27;;;7.40;99.90;;;;;;5050898;28;20240;-64
2023/01/09 06:43:02;;;;;;;6.93;6.63;;;7.30;99.90;;;;;;5051160;28;20660;-64
2023/01/09 06:45:28;;;;;;;7.10;6.80;;;7.30;99.90;;;;;;5053346;28;20171;-64
2023/01/09 06:47:53;;;;;;;6.83;6.53;;;7.30;99.90;;;;;;5056511;28;20175;-64
2023/01/09 06:50:19;;;;;;;6.87;6.47;;;7.30;99.90;;;;;;5058260;28;20171;-64
2023/01/09 06:52:45;;;;;;;7.17;6.67;;;7.30;99.90;;;;;;5055744;28;20665;-63
2023/01/09 06:55:10;;;;;;;6.97;6.60;;;7.30;99.90;;;;;;5051283;28;20179;-61
2023/01/09 06:57:36;;;;;;;7.03;6.63;;;7.30;99.90;;;;;;5050895;28;20171;-63
2023/01/09 07:00:03;;;;;;;6.50;6.10;;;7.30;99.90;;;;;;5050895;28;20170;-64
2023/01/09 07:02:28;;;;;;;6.57;6.27;;;7.30;99.90;;;;;;5050781;28;20207;-63
2023/01/09 07:04:54;;;;;;;6.33;6.10;;;7.30;99.90;;;;;;5050777;28;20186;-63
2023/01/09 07:07:21;;;;;;;5.80;5.60;;;7.20;99.90;;;;;;5050832;28;20236;-64
2023/01/09 07:09:47;;;;;;;6.43;6.13;;;7.20;99.90;;;;;;5050719;28;20171;-63
2023/01/09 07:12:14;;;;;;;6.60;6.20;;;7.20;99.90;;;;;;5050685;28;20209;-63
2023/01/09 07:14:40;;;;;;;6.60;6.30;;;7.20;99.90;;;;;;5051062;28;20260;-63
2023/01/09 07:17:05;;;;;;;7.27;6.77;;;7.30;99.90;;;;;;5050618;28;20666;-63
2023/01/09 07:19:31;;;;;;;6.30;6.10;;;7.30;99.90;;;;;;5050742;28;20567;-63
2023/01/09 07:21:57;;;;;;;7.00;6.70;;;7.30;99.90;;;;;;5050684;28;20260;-63
2023/01/09 07:24:22;;;;;;;6.53;6.23;;;7.30;99.90;;;;;;5049176;28;20657;-64
2023/01/09 07:26:48;;;;;;;6.27;6.07;;;7.30;99.90;;;;;;5050520;28;20178;-63
2023/01/09 07:29:14;;;;;;;7.00;6.67;;;7.40;99.90;;;;;;5050603;28;20175;-63
2023/01/09 07:31:39;;;;;;;6.70;6.40;;;7.40;99.90;;;;;;5049357;28;20549;-63
2023/01/09 07:34:05;;;;;;;6.80;6.40;;;7.40;99.90;;;;;;5050692;28;20183;-63
2023/01/09 07:36:30;;;;;;;7.23;6.83;;;7.40;99.90;;;;;;5050721;28;20220;-64
2023/01/09 07:38:56;;;;;;;7.37;6.90;;;7.40;99.90;;;;;;5050790;28;20182;-63
2023/01/09 07:41:21;;;;;;;6.83;6.53;;;7.40;99.90;;;;;;5051063;28;20210;-64
2023/01/09 07:43:47;;;;;;;7.20;6.77;;;7.40;99.90;;;;;;5050714;28;20175;-64
2023/01/09 07:46:13;;;;;;;6.73;6.43;;;7.50;99.90;;;;;;5054255;28;20229;-64
2023/01/09 07:48:38;;;;;;;7.47;7.10;;;7.50;99.90;;;;;;5054249;28;20182;-64
2023/01/09 07:51:05;;;;;;;7.63;7.23;;;7.50;99.90;;;;;;5034230;28;20253;-63
2023/01/09 07:53:30;;;;;;;7.93;7.37;;;7.50;99.90;;;;;;5034494;28;20195;-64
2023/01/09 07:55:56;;;;;;;8.23;7.60;;;7.50;99.90;;;;;;5052377;28;20182;-64
2023/01/09 07:58:22;;;;;;;8.17;7.77;;;7.50;99.90;;;;;;5052580;28;20187;-63
2023/01/09 08:00:49;;;;;;;7.20;6.90;;;7.60;99.90;;;;;;5053191;28;20190;-63
2023/01/09 08:03:14;;;;;;;8.53;8.03;;;7.60;99.90;;;;;;5053966;28;20198;-63
2023/01/09 08:05:40;;;;;;;8.30;7.60;;;7.60;99.90;;;;;;5054037;28;20547;-63
2023/01/09 08:08:06;;;;;;;8.07;7.57;;;7.60;99.90;;;;;;5053811;28;20167;-63
2023/01/09 08:10:31;;;;;;;7.77;7.30;;;7.70;99.90;;;;;;5053509;28;20210;-63
2023/01/09 08:12:57;;;;;;;7.93;7.40;;;7.70;99.90;;;;;;5054040;28;20281;-63
2023/01/09 08:15:22;;;;;;;6.57;6.20;;;7.80;99.90;;;;;;5053828;28;20178;-63
2023/01/09 08:17:48;;;;;;;7.10;6.80;;;7.90;99.90;;;;;;5053949;28;20171;-63
2023/01/09 08:20:15;;;;;;;7.77;6.67;;;7.90;99.90;;;;;;5053464;28;20181;-63
2023/01/09 08:22:42;;;;;;;10.47;7.83;;;7.90;99.90;;;;;;5053671;28;20303;-63
2023/01/09 08:25:09;;;;;;;6.90;6.50;;;8.00;99.90;;;;;;5053785;28;20660;-63
2023/01/09 08:27:35;;;;;;;9.33;7.23;;;8.00;99.90;;;;;;5054009;28;20174;-63
2023/01/09 08:30:01;;;;;;;6.57;6.10;;;8.10;99.90;;;;;;5053343;28;20179;-63
2023/01/09 08:32:26;;;;;;;7.00;6.50;;;8.20;99.90;;;;;;5052244;28;20210;-63
2023/01/09 08:34:52;;;;;;;6.20;5.80;;;8.20;99.90;;;;;;5053397;28;20629;-63
2023/01/09 08:37:17;;;;;;;6.10;5.57;;;8.20;99.90;;;;;;5053764;28;20365;-63
2023/01/09 08:39:43;;;;;;;6.77;6.37;;;8.20;99.90;;;;;;5053299;28;20182;-63
2023/01/09 08:47:51;;;;;;;8.43;7.63;;;8.20;99.90;;;;;;5030159;28;20641;-64
2023/01/09 08:50:16;;;;;;;7.10;6.70;;;8.20;99.90;;;;;;5051746;28;20186;-64
2023/01/09 08:52:42;;;;;;;9.93;5.70;;;8.20;99.90;;;;;;5053194;28;20442;-64
2023/01/09 08:55:08;;;;;;;6.73;6.13;;;8.20;99.90;;;;;;5052984;28;20187;-63
2023/01/09 08:57:33;;;;;;;5.40;5.20;;;8.20;99.90;;;;;;5051199;28;20559;-63
2023/01/09 08:59:59;;;;;;;6.53;5.57;;;8.20;99.90;;;;;;5052449;28;20494;-63
2023/01/09 09:02:24;;;;;;;6.00;5.60;;;8.20;99.90;;;;;;5052960;28;20210;-63
2023/01/09 09:04:54;;;;;;;5.70;5.30;;;8.30;99.90;;;;;;5053176;28;20775;-63
2023/01/09 09:07:26;;;;;;;7.63;7.20;;;8.40;99.90;;;;;;5053486;28;20167;-63
2023/01/09 09:09:53;;;;;;;5.97;5.70;;;8.40;99.90;;;;;;5052719;28;20194;-63
2023/01/09 09:12:18;;;;;;;7.63;7.20;;;8.50;99.90;;;;;;5052934;28;20280;-63
2023/01/09 09:17:28;;;;;;;6.30;5.90;;;8.50;99.90;;;;;;5053165;28;20213;-63
2023/01/09 09:19:53;;;;;;;5.57;5.17;;;8.60;99.90;;;;;;5052418;28;20625;-63
2023/01/09 09:22:19;;;;;;;5.97;5.77;;;8.60;99.90;;;;;;5052556;28;20260;-63
2023/01/09 09:24:45;;;;;;;7.27;6.67;;;8.60;99.90;;;;;;5052655;28;20175;-63
2023/01/09 09:27:10;;;;;;;5.30;5.10;;;8.60;99.90;;;;;;5052660;28;20628;-63
2023/01/09 09:29:36;;;;;;;6.10;5.50;;;8.60;99.90;;;;;;5051085;28;20269;-63
2023/01/09 09:32:01;;;;;;;6.90;6.50;;;8.60;99.90;;;;;;5052301;28;20220;-63
2023/01/09 09:34:27;;;;;;;5.60;5.10;;;8.60;99.90;;;;;;5052491;28;20201;-63
2023/01/09 09:36:53;;;;;;;5.40;5.10;;;8.60;99.90;;;;;;5052394;28;20189;-63
2023/01/09 09:39:18;;;;;;;5.10;4.90;;;8.60;99.90;;;;;;5052266;28;20178;-63
2023/01/09 09:45:11;;;;;;;5.87;5.67;;;8.70;99.90;;;;;;5052240;28;20540;-63
2023/01/09 09:47:59;;;;;;;5.27;5.07;;;8.70;99.90;;;;;;5051019;28;20186;-63
2023/01/09 09:50:40;;;;;;;5.90;5.37;;;8.60;99.90;;;;;;5051957;28;20171;-63
2023/01/09 09:53:09;;;;;;;4.87;4.67;;;8.60;99.90;;;;;;5051997;28;20202;-64
2023/01/09 09:55:40;;;;;;;4.87;4.67;;;8.50;99.90;;;;;;5052171;28;20182;-63
2023/01/09 09:58:41;;;;;;;6.80;6.50;;;8.50;99.90;;;;;;5052095;28;20765;-63
2023/01/09 10:01:08;;;;;;;5.00;4.80;;;8.50;99.90;;;;;;5043585;28;20594;-63
2023/01/09 10:03:38;;;;;;;5.20;5.00;;;8.60;99.90;;;;;;5052212;28;20387;-63
2023/01/09 10:06:24;;;;;;;5.70;5.40;;;8.60;99.90;;;;;;5052234;28;20179;-63
2023/01/09 10:09:02;;;;;;;5.20;5.00;;;8.80;99.90;;;;;;5051604;28;20275;-63
2023/01/09 10:11:58;;;;;;;7.30;6.90;;;8.90;99.90;;;;;;5051722;28;20190;-63
2023/01/09 10:14:24;;;;;;;5.07;4.83;;;9.00;99.90;;;;;;5051801;28;20183;-64
2023/01/09 10:17:09;;;;;;;5.50;4.63;;;9.10;99.90;;;;;;5051578;28;20190;-63
2023/01/09 10:19:44;;;;;;;5.80;5.50;;;9.20;99.90;;;;;;5051642;28;20201;-63
2023/01/09 10:22:20;;;;;;;5.50;5.10;;;9.20;99.90;;;;;;5051605;28;20276;-63
2023/01/09 10:24:55;;;;;;;5.00;4.70;;;9.20;99.90;;;;;;5051652;28;20206;-63
2023/01/09 10:28:14;;;;;;;5.30;4.90;;;9.30;99.90;;;;;;5051674;28;20178;-63
2023/01/09 10:30:57;;;;;;;5.23;4.97;;;9.40;99.90;;;;;;5007710;28;20269;-63
2023/01/09 10:33:42;;;;;;;8.53;4.33;;;9.50;99.90;;;;;;5051451;28;20297;-63
2023/01/09 10:36:53;;;;;;;5.60;5.20;;;9.60;99.90;;;;;;5051629;28;20229;-63
2023/01/09 10:39:46;;;;;;;5.27;4.97;;;9.60;99.90;;;;;;5046160;28;20187;-63
2023/01/09 10:42:40;;;;;;;9.20;8.80;;;9.70;99.90;;;;;;5051350;28;20608;-63
2023/01/09 10:45:09;;;;;;;5.57;4.97;;;9.60;99.90;;;;;;5051335;28;20181;-63
2023/01/09 10:47:38;;;;;;;13.80;5.47;;;9.50;99.90;;;;;;5051058;28;20174;-63
2023/01/09 10:50:21;;;;;;;4.50;4.30;;;9.50;99.90;;;;;;5051135;28;20174;-63
2023/01/09 10:52:49;;;;;;;4.53;4.33;;;9.40;99.90;;;;;;5051297;28;20202;-63
2023/01/09 10:55:37;;;;;;;4.80;4.60;;;9.30;99.90;;;;;;5051393;28;20271;-63
2023/01/09 10:58:14;;;;;;;11.70;7.30;;;9.30;99.90;;;;;;5051335;28;20179;-63
2023/01/09 11:00:40;;;;;;;4.93;4.73;;;9.20;99.90;;;;;;5051170;28;20273;-63
2023/01/09 11:03:11;;;;;;;5.90;5.60;;;9.20;99.90;;;;;;5051162;28;20191;-63
2023/01/09 11:05:37;;;;;;;5.30;5.00;;;9.10;99.90;;;;;;5051573;28;20716;-63
2023/01/09 11:08:11;;;;;;;5.47;5.10;;;9.10;99.90;;;;;;5051611;28;20214;-63
2023/01/09 11:10:49;;;;;;;6.07;5.63;;;9.10;99.90;;;;;;5051348;28;20257;-63
2023/01/09 11:13:24;;;;;;;5.80;5.60;;;9.10;99.90;;;;;;5051379;28;20230;-63
2023/01/09 11:16:19;;;;;;;5.40;4.97;;;9.10;99.90;;;;;;5051226;28;20256;-63
2023/01/09 11:18:56;;;;;;;4.90;4.70;;;9.20;99.90;;;;;;5038365;28;20241;-63
2023/01/09 11:21:28;;;;;;;5.53;5.03;;;9.20;99.90;;;;;;5054868;28;20691;-63
2023/01/09 11:23:54;;;;;;;5.13;4.93;;;9.20;99.90;;;;;;5053625;28;20178;-63
2023/01/09 11:26:26;;;;;;;5.10;4.80;;;9.20;99.90;;;;;;5055014;28;20651;-63
2023/01/09 11:29:05;;;;;;;5.37;5.10;;;9.20;99.90;;;;;;5055111;28;20179;-63
2023/01/09 11:31:31;;;;;;;5.37;5.17;;;9.20;99.90;;;;;;5054855;28;20210;-62
2023/01/09 11:33:57;;;;;;;5.20;5.00;;;9.20;99.90;;;;;;5055154;28;20634;-63
2023/01/09 11:36:24;;;;;;;6.00;5.00;;;9.20;99.90;;;;;;5054767;28;20182;-63
2023/01/09 11:38:53;;;;;;;5.33;5.13;;;9.30;99.90;;;;;;5054582;28;20222;-63
2023/01/09 11:41:26;;;;;;;5.03;4.83;;;9.30;99.90;;;;;;5054311;28;20206;-63
2023/01/09 11:43:57;;;;;;;5.03;4.83;;;9.30;99.90;;;;;;5054689;28;20167;-63
2023/01/09 11:46:32;;;;;;;4.83;4.63;;;9.30;99.90;;;;;;5054423;28;20185;-63
2023/01/09 11:48:59;;;;;;;4.83;4.60;;;9.30;99.90;;;;;;5054517;28;20202;-63
2023/01/09 11:51:28;;;;;;;4.60;4.40;;;9.40;99.90;;;;;;5054397;28;20197;-63
2023/01/09 11:54:14;;;;;;;4.83;4.63;;;9.50;99.90;;;;;;5054452;28;20170;-63
2023/01/09 11:56:41;;;;;;;5.87;5.47;;;9.50;99.90;;;;;;5054418;28;20189;-63
2023/01/09 11:59:21;;;;;;;4.90;4.70;;;9.50;99.90;;;;;;5054240;28;20628;-62
2023/01/09 12:02:02;;;;;;;5.07;4.87;;;9.50;99.90;;;;;;5054094;28;20210;-63
2023/01/09 12:05:15;;;;;;;5.13;4.60;;;9.50;99.90;;;;;;5054527;28;20170;-63
2023/01/09 12:07:56;;;;;;;5.27;4.90;;;9.60;99.90;;;;;;4999951;28;20296;-63
2023/01/09 12:10:59;;;;;;;4.37;4.17;;;9.80;99.90;;;;;;5053878;28;20189;-63
2023/01/09 12:13:32;;;;;;;5.00;4.80;;;9.80;99.90;;;;;;5054111;28;20208;-63
2023/01/09 12:16:09;;;;;;;4.50;4.30;;;9.70;99.90;;;;;;5053996;28;20565;-63
2023/01/09 12:18:55;;;;;;;5.10;4.90;;;9.50;99.90;;;;;;5052664;28;20179;-64
2023/01/09 12:21:31;;;;;;;4.93;4.73;;;9.30;99.90;;;;;;5053674;28;20202;-63
2023/01/09 12:23:59;;;;;;;6.13;4.70;;;9.20;99.90;;;;;;5053856;28;20181;-63
2023/01/09 12:26:39;;;;;;;5.37;5.17;;;9.00;99.90;;;;;;5053801;28;20628;-63
2023/01/09 12:29:22;;;;;;;4.97;4.77;;;8.90;99.90;;;;;;5053649;28;20199;-63
2023/01/09 12:31:57;;;;;;;6.20;5.60;;;8.90;99.90;;;;;;5048390;28;20780;-62
2023/01/09 12:34:42;;;;;;;6.20;6.00;;;8.80;99.90;;;;;;5052383;28;20206;-62
2023/01/09 12:37:10;;;;;;;5.60;5.40;;;8.80;99.90;;;;;;5053543;28;20185;-62
2023/01/09 12:39:45;;;;;;;5.90;5.60;;;8.70;99.90;;;;;;5053375;28;20175;-63
2023/01/09 12:42:35;;;;;;;5.30;5.10;;;8.80;99.90;;;;;;5053333;28;20284;-63
2023/01/09 12:45:26;;;;;;;5.60;5.27;;;8.80;99.90;;;;;;5052019;28;20178;-63
2023/01/09 12:47:59;;;;;;;5.57;5.30;;;8.90;99.90;;;;;;5053401;28;20170;-63
2023/01/09 12:50:43;;;;;;;6.63;6.33;;;8.90;99.90;;;;;;5052896;28;20178;-63
2023/01/09 12:53:28;;;;;;;5.40;5.20;;;9.00;99.90;;;;;;5053255;28;20199;-62
2023/01/09 12:56:20;;;;;;;5.50;5.30;;;9.00;99.90;;;;;;5051635;28;20181;-63
2023/01/09 12:58:50;;;;;;;5.27;5.07;;;9.00;99.90;;;;;;5048568;28;20556;-62
2023/01/09 13:01:23;;;;;;;6.03;5.53;;;9.00;99.90;;;;;;5051245;28;20190;-63
2023/01/09 13:04:24;;;;;;;6.00;5.50;;;9.00;99.90;;;;;;5050808;28;20175;-63
2023/01/09 13:07:10;;;;;;;5.40;5.20;;;9.00;99.90;;;;;;5052806;28;20610;-63
2023/01/09 13:09:44;;;;;;;6.17;5.80;;;9.10;99.90;;;;;;5052271;28;20179;-63
2023/01/09 13:12:20;;;;;;;5.90;5.60;;;9.10;99.90;;;;;;5053385;28;20194;-63
2023/01/09 13:14:54;;;;;;;5.40;5.17;;;9.10;99.90;;;;;;5033109;28;20568;-63
2023/01/09 13:17:26;;;;;;;5.50;5.00;;;9.00;99.90;;;;;;5033535;28;20183;-64
2023/01/09 13:19:53;;;;;;;5.90;5.40;;;8.90;99.90;;;;;;5052598;28;20178;-63
2023/01/09 13:22:20;;;;;;;6.33;5.93;;;8.80;99.90;;;;;;5052551;28;20289;-63
2023/01/09 13:24:48;;;;;;;8.43;7.70;;;8.70;99.90;;;;;;5052249;28;20225;-62
2023/01/09 13:27:19;;;;;;;7.37;6.70;;;8.60;99.90;;;;;;5051502;28;20190;-63
2023/01/09 13:29:49;;;;;;;6.20;5.80;;;8.70;99.90;;;;;;5051860;28;20197;-63